createdAt,value
2023-02-06T00:02:01.268Z,2.2
2023-02-06T00:04:05.057Z,2
2023-02-06T00:06:11.687Z,2
2023-02-06T00:08:15.367Z,2.3
2023-02-06T00:10:19.112Z,2.2
2023-02-06T00:12:22.852Z,2.3
2023-02-06T00:16:30.224Z,2.3
2023-02-06T00:24:48.350Z,2.4
2023-02-06T00:28:55.842Z,1.9
2023-02-06T00:30:59.632Z,2.1
2023-02-06T00:35:10.039Z,2.4
2023-02-06T00:39:17.486Z,2.2
2023-02-06T00:41:21.303Z,2.2
2023-02-06T00:43:24.970Z,2.2
2023-02-06T00:47:32.448Z,1.7
2023-02-06T00:49:39.255Z,1.8
2023-02-06T00:51:43.013Z,1.8
2023-02-06T00:53:46.754Z,2.1
2023-02-06T00:54:50.197Z,1.9
2023-02-06T00:56:53.938Z,1.8
2023-02-06T00:58:57.685Z,1.9
2023-02-06T01:03:09.783Z,1.9
2023-02-06T01:05:13.460Z,2
2023-02-06T01:07:17.138Z,1.9
2023-02-06T01:09:20.907Z,2
2023-02-06T01:11:24.609Z,2.1
2023-02-06T01:13:28.308Z,2
2023-02-06T01:15:31.998Z,1.9
2023-02-06T01:17:38.780Z,2.2
2023-02-06T01:19:42.507Z,2
2023-02-06T01:21:46.180Z,2.1
2023-02-06T01:23:49.806Z,2
2023-02-06T01:25:53.490Z,1.8
2023-02-06T01:27:57.176Z,2.2
2023-02-06T01:30:00.770Z,2.1
2023-02-06T01:32:07.581Z,2.1
2023-02-06T01:34:11.239Z,2.1
2023-02-06T01:36:14.969Z,2.3
2023-02-06T01:40:22.478Z,2.2
2023-02-06T01:42:26.211Z,2.4
2023-02-06T01:44:29.962Z,2.5
2023-02-06T01:51:47.571Z,2.2
2023-02-06T01:53:51.279Z,2.3
2023-02-06T01:55:54.961Z,2.4
2023-02-06T01:57:58.656Z,2.2
2023-02-06T02:06:16.720Z,2.4
2023-02-06T02:08:20.463Z,2.5
2023-02-06T02:10:24.174Z,2.5
2023-02-06T02:12:27.797Z,2.2
2023-02-06T02:14:34.563Z,2.4
2023-02-06T02:20:45.664Z,2.5
2023-02-06T02:26:56.899Z,2.7
2023-02-06T02:31:07.497Z,2.6
2023-02-06T02:33:11.172Z,2.9
2023-02-06T02:35:14.919Z,2.7
2023-02-06T02:37:18.660Z,3
2023-02-06T02:39:22.313Z,2.8
2023-02-06T02:41:25.936Z,2.7
2023-02-06T02:43:32.679Z,2.9
2023-02-06T02:45:36.713Z,2.7
2023-02-06T02:47:39.994Z,2.9
2023-02-06T02:50:02.347Z,2.8
2023-02-06T02:52:05.987Z,2.8
2023-02-06T02:54:09.592Z,2.7
2023-02-06T02:56:16.361Z,3
2023-02-06T02:58:20.130Z,2.7
2023-02-06T03:00:23.735Z,2.7
2023-02-06T03:02:27.511Z,2.8
2023-02-06T03:04:31.176Z,3
2023-02-06T03:06:34.826Z,2.8
2023-02-06T03:08:38.536Z,2.7
2023-02-06T03:10:45.279Z,2.7
2023-02-06T03:12:49.006Z,2.7
2023-02-06T03:14:52.748Z,2.8
2023-02-06T03:16:56.404Z,2.8
2023-02-06T03:19:00.049Z,2.8
2023-02-06T03:23:07.321Z,2.7
2023-02-06T03:27:17.774Z,2.8
2023-02-06T03:31:25.288Z,2.6
2023-02-06T03:37:36.276Z,2.2
2023-02-06T03:39:43.022Z,2.4
2023-02-06T03:41:46.686Z,2.3
2023-02-06T03:44:53.725Z,2.5
2023-02-06T03:46:57.367Z,2.4
2023-02-06T03:49:01.077Z,2.5
2023-02-06T03:51:04.775Z,2.1
2023-02-06T03:53:11.591Z,2.4
2023-02-06T03:55:15.312Z,2.3
2023-02-06T03:57:18.958Z,2.2
2023-02-06T03:59:22.608Z,2.5
2023-02-06T04:01:26.264Z,2.2
2023-02-06T04:03:29.873Z,2.1
2023-02-06T04:07:40.286Z,2.3
2023-02-06T04:09:43.990Z,2.1
2023-02-06T04:11:47.718Z,2.4
2023-02-06T04:13:51.430Z,2.5
2023-02-06T04:15:55.098Z,2.3
2023-02-06T04:18:01.049Z,2.2
2023-02-06T04:32:28.154Z,2.2
2023-02-06T04:34:31.804Z,2.5
2023-02-06T04:36:38.501Z,2.4
2023-02-06T04:38:42.254Z,2.5
2023-02-06T04:40:45.991Z,2.2
2023-02-06T04:41:49.420Z,2.1
2023-02-06T04:43:53.082Z,2.3
2023-02-06T04:45:56.820Z,2.1
2023-02-06T04:50:07.289Z,2.2
2023-02-06T04:52:10.970Z,2.4
2023-02-06T04:54:14.656Z,2.3
2023-02-06T04:56:18.415Z,2.2
2023-02-06T04:58:22.114Z,2.2
2023-02-06T05:00:25.765Z,2.4
2023-02-06T05:02:29.496Z,2.1
2023-02-06T05:04:36.954Z,2.3
2023-02-06T05:06:40.716Z,2.1
2023-02-06T05:08:44.401Z,2.3
2023-02-06T05:10:48.053Z,2.2
2023-02-06T05:12:51.708Z,1.9
2023-02-06T05:14:55.390Z,2.2
2023-02-06T05:16:59.053Z,2.4
2023-02-06T05:19:05.819Z,2.4
2023-02-06T05:21:09.458Z,2.1
2023-02-06T05:23:13.233Z,1.9
2023-02-06T05:25:16.972Z,2.1
2023-02-06T05:29:24.415Z,2.3
2023-02-06T05:31:28.305Z,2
2023-02-06T05:33:35.042Z,2.3
2023-02-06T05:35:38.795Z,2.4
2023-02-06T05:37:42.435Z,2.4
2023-02-06T05:40:49.610Z,2.1
2023-02-06T05:42:53.327Z,2.2
2023-02-06T05:47:03.655Z,2.1
2023-02-06T05:49:07.402Z,2.5
2023-02-06T05:51:11.126Z,2.2
2023-02-06T05:53:14.863Z,2.1
2023-02-06T05:55:18.610Z,2.2
2023-02-06T05:57:22.338Z,2.1
2023-02-06T06:01:32.725Z,2
2023-02-06T06:03:36.509Z,2.3
2023-02-06T06:05:40.017Z,2.4
2023-02-06T06:07:43.664Z,2.3
2023-02-06T06:09:47.334Z,2.2
2023-02-06T06:11:51.034Z,2
2023-02-06T06:13:54.721Z,2.2
2023-02-06T06:16:01.550Z,2.3
2023-02-06T06:18:05.303Z,2.1
2023-02-06T06:20:08.880Z,2.1
2023-02-06T06:22:12.608Z,2.1
2023-02-06T06:24:16.262Z,2.2
2023-02-06T06:26:20.026Z,1.9
2023-02-06T06:28:23.741Z,2
2023-02-06T06:32:34.388Z,2.5
2023-02-06T06:34:38.129Z,2.3
2023-02-06T06:37:00.373Z,2.1
2023-02-06T06:39:04.038Z,2.3
2023-02-06T06:41:07.848Z,2
2023-02-06T06:45:18.426Z,2.4
2023-02-06T06:47:21.935Z,2.4
2023-02-06T06:57:43.743Z,2.3
2023-02-06T06:59:47.456Z,2.4
2023-02-06T07:01:51.204Z,2.4
2023-02-06T07:06:00.113Z,2.3
2023-02-06T07:10:07.494Z,2.3
2023-02-06T07:12:14.287Z,2.5
2023-02-06T07:14:18.040Z,2.6
2023-02-06T07:16:21.809Z,2.6
2023-02-06T07:20:29.342Z,2.6
2023-02-06T07:22:32.830Z,2.7
2023-02-06T07:24:36.591Z,2.7
2023-02-06T07:30:50.713Z,2.7
2023-02-06T07:33:57.781Z,2.7
2023-02-06T07:36:03.696Z,2.8
2023-02-06T07:38:05.237Z,2.9
2023-02-06T07:40:11.889Z,2.9
2023-02-06T07:42:15.507Z,2.9
2023-02-06T07:44:19.152Z,2.9
2023-02-06T07:46:22.830Z,2.9
2023-02-06T07:48:26.577Z,3
2023-02-06T07:50:30.296Z,3
2023-02-06T07:52:33.946Z,3.1
2023-02-06T08:02:55.448Z,3.2
2023-02-06T08:04:59.140Z,3.2
2023-02-06T08:07:02.745Z,3.3
2023-02-06T08:11:13.087Z,3.3
2023-02-06T08:13:16.762Z,3.2
2023-02-06T08:15:20.365Z,3.3
2023-02-06T08:17:23.976Z,3.3
2023-02-06T08:19:27.628Z,3.4
2023-02-06T08:21:31.275Z,3.5
2023-02-06T08:23:38.169Z,3.5
2023-02-06T08:25:41.822Z,3.6
2023-02-06T08:27:45.470Z,3.6
2023-02-06T08:28:48.770Z,3.6
2023-02-06T08:30:52.490Z,3.6
2023-02-06T08:32:56.075Z,3.7
2023-02-06T08:34:59.707Z,3.7
2023-02-06T08:37:06.423Z,3.8
2023-02-06T08:39:10.041Z,3.9
2023-02-06T08:41:13.678Z,4
2023-02-06T08:43:17.312Z,4
2023-02-06T08:45:20.963Z,4.1
2023-02-06T08:47:24.595Z,4.3
2023-02-06T08:49:28.248Z,4.4
2023-02-06T08:51:35.025Z,4.6
2023-02-06T08:53:38.626Z,4.6
2023-02-06T08:57:45.893Z,4.7
2023-02-06T08:59:49.508Z,4.8
2023-02-06T09:01:53.155Z,4.9
2023-02-06T09:03:56.838Z,5
2023-02-06T09:06:09.717Z,5.1
2023-02-06T09:08:07.196Z,5.4
2023-02-06T09:10:19.044Z,5.7
2023-02-06T09:12:14.485Z,6
2023-02-06T09:14:18.156Z,6
2023-02-06T09:16:21.794Z,5.8
2023-02-06T09:27:46.448Z,6.4
2023-02-06T09:29:49.973Z,6.3
2023-02-06T09:34:00.345Z,6.6
2023-02-06T09:36:03.927Z,6.6
2023-02-06T09:38:07.585Z,6.7
2023-02-06T09:40:11.241Z,6.8
2023-02-06T09:42:14.859Z,6.8
2023-02-06T09:48:28.879Z,7.2
2023-02-06T09:54:39.733Z,7.4
2023-02-06T09:56:43.371Z,7.5
2023-02-06T09:58:46.993Z,7.7
2023-02-06T10:00:50.634Z,8.2
2023-02-06T10:02:57.318Z,8.3
2023-02-06T10:05:00.902Z,8.4
2023-02-06T10:07:04.591Z,8.1
2023-02-06T10:09:08.187Z,8.4
2023-02-06T10:11:11.804Z,8.9
2023-02-06T10:13:15.513Z,9.2
2023-02-06T10:15:19.079Z,9
2023-02-06T10:17:25.746Z,7.5
2023-02-06T10:19:29.366Z,7.4
2023-02-06T10:21:32.999Z,7.4
2023-02-06T10:23:57.282Z,7.3
2023-02-06T10:26:00.849Z,7.3
2023-02-06T10:30:11.187Z,7.4
2023-02-06T10:34:18.409Z,7.5
2023-02-06T10:40:29.272Z,8.2
2023-02-06T10:42:32.835Z,8.1
2023-02-06T10:52:53.912Z,8.2
2023-02-06T10:54:57.542Z,8
2023-02-06T10:57:01.145Z,7.7
2023-02-06T10:59:07.804Z,7.5
2023-02-06T11:01:24.677Z,7.5
2023-02-06T11:03:15.010Z,7.5
2023-02-06T11:05:18.614Z,7.5
2023-02-06T11:07:22.231Z,7.6
2023-02-06T11:09:25.807Z,7.6
2023-02-06T11:11:29.404Z,7.8
2023-02-06T11:13:36.086Z,7.9
2023-02-06T11:15:39.763Z,8
2023-02-06T11:17:43.283Z,8.1
2023-02-06T11:18:46.630Z,8.3
2023-02-06T11:20:50.215Z,8.5
2023-02-06T11:22:53.964Z,8.7
2023-02-06T11:24:57.409Z,8.6
2023-02-06T11:27:04.041Z,8.6
2023-02-06T11:29:07.656Z,8.7
2023-02-06T11:33:14.871Z,10
2023-02-06T11:35:18.450Z,9.3
2023-02-06T11:37:22.045Z,9.5
2023-02-06T11:39:25.625Z,9.2
2023-02-06T11:41:32.281Z,8.9
2023-02-06T11:43:35.873Z,9
2023-02-06T11:51:50.236Z,8.3
2023-02-06T11:56:00.486Z,8.7
2023-02-06T12:00:07.675Z,9.3
2023-02-06T12:02:11.334Z,9.5
2023-02-06T12:04:14.844Z,9.4
2023-02-06T12:08:22.014Z,10.1
2023-02-06T12:10:28.677Z,9.5
2023-02-06T12:14:36.225Z,9.6
2023-02-06T12:15:46.663Z,9.8
2023-02-06T12:17:43.162Z,9.5
2023-02-06T12:19:46.722Z,11.1
2023-02-06T12:21:50.324Z,12.8
2023-02-06T12:23:56.989Z,11.7
2023-02-06T12:26:00.536Z,11.1
2023-02-06T12:28:04.128Z,11.2
2023-02-06T12:30:07.681Z,11.2
2023-02-06T12:32:11.284Z,11.4
2023-02-06T12:34:14.815Z,11.6
2023-02-06T12:46:39.997Z,11.7
2023-02-06T12:57:00.807Z,9.9
2023-02-06T13:01:17.675Z,11.3
2023-02-06T13:03:13.025Z,11.2
2023-02-06T13:05:16.554Z,10.6
2023-02-06T13:07:23.153Z,10
2023-02-06T13:11:30.254Z,9.3
2023-02-06T13:12:33.550Z,8.9
2023-02-06T13:14:39.303Z,8.8
2023-02-06T13:16:40.661Z,8.5
2023-02-06T13:18:44.224Z,8.4
2023-02-06T13:20:50.902Z,8.5
2023-02-06T13:22:54.465Z,8.4
2023-02-06T13:24:58.010Z,8.4
2023-02-06T13:27:01.549Z,8.4
2023-02-06T13:29:05.125Z,8.3
2023-02-06T13:31:08.799Z,8.2
2023-02-06T13:33:12.254Z,8.1
2023-02-06T13:41:29.635Z,7.7
2023-02-06T13:43:33.206Z,7.6
2023-02-06T13:47:40.399Z,7.6
2023-02-06T13:49:47.054Z,7.4
2023-02-06T13:51:50.628Z,7.5
2023-02-06T13:53:54.234Z,7.5
2023-02-06T13:55:57.824Z,8.2
2023-02-06T13:58:01.431Z,9
2023-02-06T14:00:05.019Z,9.3
2023-02-06T14:02:08.616Z,9.4
2023-02-06T14:04:15.295Z,9
2023-02-06T14:06:19.046Z,9.2
2023-02-06T14:10:46.872Z,10.5
2023-02-06T14:12:50.519Z,10.5
2023-02-06T14:17:00.751Z,9.9
2023-02-06T14:19:04.362Z,9.4
2023-02-06T14:21:07.951Z,8.7
2023-02-06T14:27:18.693Z,7.8
2023-02-06T14:29:22.251Z,7.8
2023-02-06T14:31:29.038Z,7.7
2023-02-06T14:33:32.530Z,7.7
2023-02-06T14:37:39.718Z,8.5
2023-02-06T14:39:43.298Z,8.9
2023-02-06T14:46:06.702Z,9.1
2023-02-06T14:48:00.724Z,9.5
2023-02-06T14:50:04.338Z,10
2023-02-06T14:52:07.939Z,10.2
2023-02-06T14:54:11.515Z,10.6
2023-02-06T14:56:15.142Z,11.1
2023-02-06T14:58:18.717Z,11.7
2023-02-06T15:00:25.427Z,13.2
2023-02-06T15:02:29.003Z,13.9
2023-02-06T15:04:32.597Z,14.4
2023-02-06T15:09:43.072Z,13.1
2023-02-06T15:11:46.689Z,11.8
2023-02-06T15:13:53.289Z,9.6
2023-02-06T15:15:56.912Z,9
2023-02-06T15:18:00.443Z,8.3
2023-02-06T15:42:49.516Z,7.4
2023-02-06T15:44:53.097Z,7.6
2023-02-06T15:49:00.314Z,7.7
2023-02-06T15:55:11.154Z,7.3
2023-02-06T15:59:21.417Z,7
2023-02-06T16:08:39.182Z,6.2
2023-02-06T16:21:03.960Z,5.7
2023-02-06T16:25:14.263Z,5.3
2023-02-06T16:27:17.876Z,5.2
2023-02-06T16:29:21.491Z,5.1
2023-02-06T16:31:25.324Z,4.9
2023-02-06T16:33:28.716Z,4.8
2023-02-06T16:35:32.357Z,4.8
2023-02-06T16:37:35.996Z,4.7
2023-02-06T16:39:42.687Z,4.6
2023-02-06T16:41:46.324Z,4.6
2023-02-06T16:43:49.948Z,4.5
2023-02-06T16:45:53.662Z,4.4
2023-02-06T16:47:57.191Z,4.4
2023-02-06T16:50:00.998Z,4.2
2023-02-06T16:52:04.491Z,4.2
2023-02-06T16:54:11.226Z,4.1
2023-02-06T16:58:18.488Z,4
2023-02-06T17:03:29.136Z,3.8
2023-02-06T17:05:32.787Z,3.7
2023-02-06T17:07:39.450Z,3.6
2023-02-06T17:09:43.107Z,3.6
2023-02-06T17:11:46.778Z,3.6
2023-02-06T17:13:50.411Z,3.6
2023-02-06T17:15:54.055Z,3.4
2023-02-06T17:17:57.708Z,3.4
2023-02-06T17:20:01.343Z,3.4
2023-02-06T17:22:08.037Z,3.3
2023-02-06T17:24:11.667Z,3.3
2023-02-06T17:28:19.158Z,3.4
2023-02-06T17:30:22.777Z,3.3
2023-02-06T17:32:26.363Z,3.2
2023-02-06T17:34:29.976Z,3.2
2023-02-06T17:36:36.773Z,3
2023-02-06T17:38:40.417Z,3.1
2023-02-06T17:40:44.108Z,3.1
2023-02-06T17:42:47.661Z,3.1
2023-02-06T17:44:51.399Z,3
2023-02-06T17:46:55.109Z,3.1
2023-02-06T17:48:58.724Z,3.1
2023-02-06T17:53:09.061Z,3
2023-02-06T17:55:12.730Z,2.9
2023-02-06T17:57:35.171Z,2.9
2023-02-06T17:59:38.835Z,2.9
2023-02-06T18:01:42.568Z,2.8
2023-02-06T18:03:49.181Z,2.8
2023-02-06T18:05:52.820Z,2.8
2023-02-06T18:07:56.537Z,2.8
2023-02-06T18:10:00.204Z,2.7
2023-02-06T18:12:03.962Z,2.6
2023-02-06T18:14:07.608Z,2.8
2023-02-06T18:16:11.308Z,2.6
2023-02-06T18:18:18.135Z,2.5
2023-02-06T18:20:21.763Z,2.6
2023-02-06T18:22:25.492Z,2.7
2023-02-06T18:24:29.243Z,2.6
2023-02-06T18:26:32.859Z,2.6
2023-02-06T18:28:36.614Z,2.4
2023-02-06T18:30:40.462Z,2.4
2023-02-06T18:32:47.195Z,2.3
2023-02-06T18:34:50.874Z,2.2
2023-02-06T18:36:54.544Z,2.2
2023-02-06T18:38:58.124Z,2.3
2023-02-06T18:41:01.800Z,2.2
2023-02-06T18:43:05.518Z,2
2023-02-06T18:45:09.204Z,1.9
2023-02-06T18:51:23.247Z,2.2
2023-02-06T18:52:26.637Z,2
2023-02-06T18:54:30.371Z,2.1
2023-02-06T18:56:35.589Z,2
2023-02-06T19:00:46.193Z,2.1
2023-02-06T19:02:49.829Z,1.9
2023-02-06T19:04:53.476Z,1.8
2023-02-06T19:09:00.968Z,1.7
2023-02-06T19:11:04.593Z,1.5
2023-02-06T19:13:08.229Z,1.5
2023-02-06T19:15:15.040Z,1.5
2023-02-06T19:17:18.792Z,1.5
2023-02-06T19:19:22.465Z,1.6
2023-02-06T19:21:26.213Z,1.7
2023-02-06T19:23:30.016Z,1.5
2023-02-06T19:25:33.745Z,1.6
2023-02-06T19:27:37.446Z,1.4
2023-02-06T19:29:44.214Z,1.3
2023-02-06T19:40:02.756Z,1
2023-02-06T19:44:13.272Z,1.4
2023-02-06T19:46:16.994Z,1.3
2023-02-06T19:48:20.743Z,1.2
2023-02-06T19:49:24.189Z,1.1
2023-02-06T19:53:31.629Z,1.3
2023-02-06T19:55:35.312Z,1
2023-02-06T19:57:42.181Z,1
2023-02-06T19:59:45.976Z,0.9
2023-02-06T20:01:49.708Z,1
2023-02-06T20:03:53.355Z,0.8
2023-02-06T20:05:57.081Z,1
2023-02-06T20:08:00.724Z,0.7
2023-02-06T20:10:04.482Z,1
2023-02-06T20:12:11.231Z,0.8
2023-02-06T20:14:14.913Z,1
2023-02-06T20:16:18.679Z,0.6
2023-02-06T20:18:22.281Z,0.9
2023-02-06T20:20:26.290Z,0.6
2023-02-06T20:22:30.149Z,0.7
2023-02-06T20:24:33.325Z,0.4
2023-02-06T20:26:40.219Z,0.5
2023-02-06T20:28:43.856Z,0.4
2023-02-06T20:30:47.634Z,0.7
2023-02-06T20:32:51.201Z,0.6
2023-02-06T20:34:54.882Z,0.4
2023-02-06T20:36:58.620Z,0.7
2023-02-06T20:39:02.371Z,0.7
2023-02-06T20:41:09.292Z,0.7
2023-02-06T20:43:13.016Z,0.3
2023-02-06T20:45:16.913Z,0.5
2023-02-06T20:46:20.173Z,0.6
2023-02-06T20:48:23.908Z,0.6
2023-02-06T20:50:29.381Z,0.4
2023-02-06T20:52:31.359Z,0.3
2023-02-06T20:54:38.395Z,0.6
2023-02-06T20:56:42.051Z,0.5
2023-02-06T20:58:45.742Z,0.5
2023-02-06T21:02:53.395Z,0.3
2023-02-06T21:04:56.883Z,0.3
2023-02-06T21:07:00.661Z,0.5
2023-02-06T21:11:11.190Z,0.2
2023-02-06T21:13:14.925Z,0.5
2023-02-06T21:15:18.673Z,0
2023-02-06T21:17:22.409Z,0.2
2023-02-06T21:19:26.146Z,0.5
2023-02-06T21:27:43.957Z,0.2
2023-02-06T21:29:47.700Z,-0.2
2023-02-06T21:32:00.616Z,0.3
2023-02-06T21:33:55.136Z,0.2
2023-02-06T21:35:58.842Z,0.2
2023-02-06T21:38:05.765Z,-0.1
2023-02-06T21:40:09.475Z,-0.4
2023-02-06T21:42:13.117Z,0
2023-02-06T21:44:19.371Z,-0.2
2023-02-06T21:46:23.107Z,-0.2
2023-02-06T21:48:26.810Z,-0.2
2023-02-06T21:50:33.057Z,-0.5
2023-02-06T21:52:36.770Z,-0.2
2023-02-06T21:54:40.365Z,-0.1
2023-02-06T21:56:46.625Z,-0.2
2023-02-06T21:58:50.307Z,-0.2
2023-02-06T22:00:53.903Z,0
2023-02-06T22:03:00.219Z,-0.3
2023-02-06T22:05:03.849Z,-0.4
2023-02-06T22:14:21.402Z,0.1
2023-02-06T22:16:25.197Z,-0.5
2023-02-06T22:18:31.402Z,0
2023-02-06T22:20:35.180Z,-0.4
2023-02-06T22:22:38.906Z,-0.5
2023-02-06T22:35:06.393Z,-0.3
2023-02-06T22:39:16.362Z,-0.6
2023-02-06T22:41:20.131Z,-0.8
2023-02-06T22:43:26.383Z,-0.7
2023-02-06T22:45:30.145Z,-0.9
2023-02-06T22:47:33.835Z,-0.6
2023-02-06T22:49:40.002Z,-0.7
2023-02-06T22:51:43.770Z,-0.8
2023-02-06T22:53:47.398Z,-1
2023-02-06T22:55:53.681Z,-0.7
2023-02-06T22:57:57.408Z,-1.1
2023-02-06T23:00:01.081Z,-0.6
2023-02-06T23:02:07.373Z,-1.1
2023-02-06T23:06:14.682Z,-1.2
2023-02-06T23:08:20.985Z,-1
2023-02-06T23:10:24.713Z,-0.8
2023-02-06T23:12:28.395Z,-1.3
2023-02-06T23:14:34.627Z,-1.5
2023-02-06T23:16:38.353Z,-1
2023-02-06T23:18:42.062Z,-1.3
2023-02-06T23:20:48.353Z,-1
2023-02-06T23:22:52.156Z,-1.4
2023-02-06T23:24:55.827Z,-0.9
2023-02-06T23:30:04.388Z,-1.1
2023-02-06T23:32:08.007Z,-1.1
2023-02-06T23:34:11.759Z,-1.2
2023-02-06T23:40:25.512Z,-1.5
2023-02-06T23:42:31.757Z,-1.1
2023-02-06T23:44:35.428Z,-1.1
2023-02-06T23:52:52.692Z,-1.7
2023-02-06T23:54:58.848Z,-1.2
2023-02-06T23:59:06.249Z,-1.9
